Time;durP1;ratioP1;P1;durP2;ratioP2;P2;SDS_P1;SDS_P2;PMS_P1;PMS_P2;Temp;Humidity;BMP_temperature;BMP_pressure;BME280_temperature;BME280_humidity;BME280_pressure;Samples;Min_cycle;Max_cycle;Signal;HPM_P1;HPM_P2
2021/11/28 00:00:13;;;;;;;12.90;9.40;;;;;;;1.87;100.00;99191.13;2089201;28;20032;-67
2021/11/28 00:01:15;;;;;;;14.48;9.15;;;;;;;1.88;100.00;99195.41;2081000;28;20035;-68
2021/11/28 00:02:19;;;;;;;14.40;9.57;;;;;;;1.84;100.00;99192.06;2081114;28;20112;-68
2021/11/28 00:03:20;;;;;;;14.20;8.80;;;;;;;1.83;100.00;99194.69;2089367;28;20536;-68
2021/11/28 00:04:22;;;;;;;;;;;;;;;1.84;100.00;99201.53;2090251;28;20052;-67
2021/11/28 00:05:23;;;;;;;14.03;9.10;;;;;;;1.80;100.00;99200.78;2089934;28;19919;-67
2021/11/28 00:06:27;;;;;;;12.95;8.27;;;;;;;1.77;100.00;99200.88;2089910;28;20029;-68
2021/11/28 00:10:10;;;;;;;11.88;8.38;;;;;;;1.79;100.00;99210.22;2089970;28;20036;-67
2021/11/28 00:11:25;;;;;;;15.85;9.20;;;;;;;1.79;100.00;99197.38;2089146;28;20033;-67
2021/11/28 00:12:51;;;;;;;14.65;8.00;;;;;;;1.80;100.00;99204.22;2089137;28;20028;-67
2021/11/28 00:13:51;;;;;;;16.20;9.85;;;;;;;1.84;100.00;99201.53;2089098;28;20507;-68
2021/11/28 00:14:55;;;;;;;16.10;9.13;;;;;;;1.82;100.00;99198.16;2089841;28;20053;-68
2021/11/28 00:15:59;;;;;;;14.93;8.68;;;;;;;1.80;100.00;99206.78;2089721;28;20104;-68
2021/11/28 00:16:59;;;;;;;16.17;8.63;;;;;;;1.79;100.00;99199.13;2089751;28;20086;-68
2021/11/28 00:18:00;;;;;;;15.93;10.80;;;;;;;1.79;100.00;99199.13;2090464;28;20066;-67
2021/11/28 00:19:00;;;;;;;13.80;9.50;;;;;;;1.81;100.00;99202.47;2091512;28;20025;-67
2021/11/28 00:20:02;;;;;;;14.00;9.63;;;;;;;1.80;100.00;99205.94;2091469;28;20024;-67
2021/11/28 00:21:03;;;;;;;14.07;9.43;;;;;;;1.81;100.00;99207.59;2091576;28;20063;-67
2021/11/28 00:22:04;;;;;;;15.40;9.48;;;;;;;1.79;100.00;99205.09;2090836;28;20036;-67
2021/11/28 00:23:04;;;;;;;14.80;8.98;;;;;;;1.79;100.00;99205.09;2090862;28;20509;-67
2021/11/28 00:24:05;;;;;;;14.13;9.83;;;;;;;1.78;100.00;99205.97;2091427;28;20381;-67
2021/11/28 00:25:07;;;;;;;14.38;10.10;;;;;;;1.76;100.00;99205.19;2091430;28;20505;-67
2021/11/28 00:26:08;;;;;;;17.42;9.98;;;;;;;1.76;100.00;99210.34;2091302;28;20040;-67
2021/11/28 00:27:08;;;;;;;16.67;8.90;;;;;;;1.77;100.00;99206.03;2090658;28;20016;-67
2021/11/28 00:28:12;;;;;;;15.57;9.60;;;;;;;1.76;100.00;99210.34;2090725;28;20482;-67
2021/11/28 00:29:13;;;;;;;16.30;9.93;;;;;;;1.77;100.00;99212.03;2091203;28;20065;-67
2021/11/28 00:30:18;;;;;;;19.25;10.88;;;;;;;1.79;100.00;99210.22;2091331;28;20486;-67
2021/11/28 00:31:18;;;;;;;13.57;9.43;;;;;;;1.79;100.00;99204.25;2091217;28;20029;-68
2021/11/28 00:32:19;;;;;;;16.50;9.27;;;;;;;1.78;100.00;99213.69;2091447;28;20029;-67
2021/11/28 00:33:19;;;;;;;14.43;9.20;;;;;;;1.79;100.00;99206.84;2091412;28;20466;-68
2021/11/28 00:34:19;;;;;;;14.43;9.40;;;;;;;1.80;100.00;99209.34;2091430;28;20094;-68
2021/11/28 00:35:20;;;;;;;14.83;10.03;;;;;;;1.80;100.00;99209.34;2091335;28;20055;-68
2021/11/28 00:36:20;;;;;;;16.43;9.60;;;;;;;1.79;100.00;99212.81;2091403;28;20025;-68
2021/11/28 00:37:21;;;;;;;14.57;9.60;;;;;;;1.77;100.00;99206.88;2090622;28;20318;-67
2021/11/28 00:38:21;;;;;;;14.17;9.40;;;;;;;1.78;100.00;99212.88;2090715;28;20029;-68
2021/11/28 00:39:22;;;;;;;16.13;9.20;;;;;;;1.79;100.00;99207.66;2091341;28;20351;-68
2021/11/28 00:40:22;;;;;;;14.83;9.40;;;;;;;1.78;100.00;99200.84;2090703;28;20029;-67
2021/11/28 00:41:22;;;;;;;17.60;10.50;;;;;;;1.77;100.00;99206.03;2090747;28;20105;-67
2021/11/28 00:42:23;;;;;;;14.27;9.57;;;;;;;1.79;100.00;99205.09;2091276;28;20429;-67
2021/11/28 00:43:23;;;;;;;17.17;10.57;;;;;;;1.81;100.00;99210.19;2091202;28;20103;-67
2021/11/28 00:44:23;;;;;;;17.00;10.32;;;;;;;1.82;100.00;99211.03;2091248;28;20342;-67
2021/11/28 00:45:24;;;;;;;16.27;9.93;;;;;;;1.78;100.00;99213.69;2091319;28;20043;-68
2021/11/28 00:46:24;;;;;;;14.73;9.70;;;;;;;1.79;100.00;99207.66;2091394;28;20044;-67
2021/11/28 00:47:24;;;;;;;17.23;9.40;;;;;;;1.79;100.00;99210.22;2091148;28;20031;-68
2021/11/28 00:48:29;;;;;;;16.10;9.67;;;;;;;1.81;100.00;99210.19;2091362;28;20063;-68
2021/11/28 00:49:30;;;;;;;16.73;10.55;;;;;;;1.82;100.00;99211.03;2091242;28;20086;-67
2021/11/28 00:51:52;;;;;;;20.15;10.57;;;;;;;1.82;100.00;99218.75;2091264;28;20082;-68
2021/11/28 00:52:54;;;;;;;14.82;10.32;;;;;;;1.81;100.00;99217.91;2091149;28;20017;-67
2021/11/28 00:53:54;;;;;;;16.17;9.27;;;;;;;1.82;100.00;99219.59;2091177;28;20448;-67
2021/11/28 00:54:55;;;;;;;16.63;10.00;;;;;;;1.80;100.00;99217.06;2091302;28;20021;-67
2021/11/28 00:55:55;;;;;;;18.75;10.75;;;;;;;1.84;100.00;99227.28;2091225;28;20378;-68
2021/11/28 00:56:57;;;;;;;15.77;10.73;;;;;;;1.85;100.00;99221.22;2091253;28;20025;-68
2021/11/28 00:57:57;;;;;;;19.73;10.90;;;;;;;1.85;100.00;99224.63;2091046;28;20030;-68
2021/11/28 00:58:57;;;;;;;19.03;11.00;;;;;;;1.87;100.00;99225.44;2091238;28;20509;-68
2021/11/28 01:00:04;;;;;;;17.83;11.30;;;;;;;1.89;100.00;99227.97;2091202;28;20021;-67
2021/11/28 01:01:05;;;;;;;17.02;9.23;;;;;;;1.89;100.00;99225.38;2091114;28;20057;-67
2021/11/28 01:02:05;;;;;;;15.83;9.33;;;;;;;1.91;100.00;99227.00;2091216;28;20036;-68
2021/11/28 01:03:06;;;;;;;17.87;11.30;;;;;;;1.91;100.00;99228.72;2091177;28;20033;-67
2021/11/28 01:04:07;;;;;;;;;;;;;;;1.94;100.00;99233.78;2090996;28;20029;-67
2021/11/28 01:05:08;;;;;;;16.73;9.75;;;;;;;1.92;100.00;99227.88;2090551;28;20108;-67
2021/11/28 01:06:08;;;;;;;17.75;10.68;;;;;;;1.92;100.00;99230.44;2090355;28;20506;-67
2021/11/28 01:07:09;;;;;;;19.03;9.53;;;;;;;1.93;100.00;99226.97;2082273;28;20025;-67
2021/11/28 01:08:09;;;;;;;15.57;9.70;;;;;;;1.94;100.00;99233.78;2090505;28;20056;-67
2021/11/28 01:09:10;;;;;;;17.43;9.87;;;;;;;1.94;100.00;99233.78;2091225;28;20028;-67
2021/11/28 01:10:11;;;;;;;16.45;10.73;;;;;;;1.95;100.00;99232.06;2090416;28;20406;-67
2021/11/28 01:11:11;;;;;;;16.30;11.38;;;;;;;1.93;100.00;99230.38;2090536;28;20108;-68
2021/11/28 01:12:12;;;;;;;15.70;10.37;;;;;;;1.92;100.00;99235.59;2090384;28;20017;-67
2021/11/28 01:13:14;;;;;;;18.23;9.57;;;;;;;1.91;100.00;99236.44;2082137;28;20705;-67
2021/11/28 01:14:14;;;;;;;17.73;10.77;;;;;;;1.90;100.00;99237.34;2090473;28;20041;-67
2021/11/28 01:15:15;;;;;;;18.83;11.20;;;;;;;1.87;100.00;99243.44;2091087;28;20052;-67
2021/11/28 01:16:15;;;;;;;16.98;10.20;;;;;;;1.85;100.00;99245.22;2090397;28;20055;-67
2021/11/28 01:17:17;;;;;;;20.23;11.63;;;;;;;1.85;100.00;99249.53;2090310;28;20033;-68
2021/11/28 01:18:17;;;;;;;16.25;10.00;;;;;;;1.84;100.00;99258.16;2091074;28;20479;-68
2021/11/28 01:19:17;;;;;;;19.57;11.53;;;;;;;1.83;100.00;99252.16;2090360;28;20036;-67
2021/11/28 01:20:18;;;;;;;17.80;10.57;;;;;;;1.83;100.00;99249.56;2090591;28;20020;-67
2021/11/28 01:21:19;;;;;;;15.37;9.77;;;;;;;1.84;100.00;99256.41;2090994;28;20753;-68
2021/11/28 01:22:19;;;;;;;15.98;10.02;;;;;;;1.82;100.00;99250.47;2090312;28;20025;-67
2021/11/28 01:23:20;;;;;;;17.97;9.83;;;;;;;1.80;100.00;99258.22;2082193;28;20025;-67
2021/11/28 01:24:20;;;;;;;16.07;9.80;;;;;;;1.81;100.00;99259.06;2090476;28;20040;-67
2021/11/28 01:25:20;;;;;;;17.43;10.13;;;;;;;1.80;100.00;99257.38;2091033;28;20052;-68
2021/11/28 01:26:21;;;;;;;16.73;9.80;;;;;;;1.79;100.00;99261.69;2091099;28;20047;-68
2021/11/28 01:27:22;;;;;;;17.23;9.23;;;;;;;1.79;100.00;99264.25;2090245;28;20055;-68
2021/11/28 01:28:22;;;;;;;17.77;9.25;;;;;;;1.82;100.00;99265.06;2090257;28;20028;-68
2021/11/28 01:29:23;;;;;;;16.88;10.35;;;;;;;1.83;100.00;99261.59;2090279;28;20083;-68
2021/11/28 01:30:24;;;;;;;15.65;10.55;;;;;;;1.83;100.00;99264.16;2090570;28;20494;-67
2021/11/28 01:31:25;;;;;;;20.73;11.75;;;;;;;1.85;100.00;99264.97;2090280;28;20068;-67
2021/11/28 01:32:25;;;;;;;18.47;9.80;;;;;;;1.87;100.00;99268.31;2090432;28;20040;-67
2021/11/28 01:33:26;;;;;;;20.07;11.83;;;;;;;1.85;100.00;99276.06;2091006;28;20073;-67
2021/11/28 01:34:26;;;;;;;16.88;10.30;;;;;;;1.86;100.00;99271.78;2090959;28;20025;-68
2021/11/28 01:35:26;;;;;;;17.03;10.40;;;;;;;1.88;100.00;99278.56;2091018;28;20374;-69
2021/11/28 01:36:27;;;;;;;19.80;10.10;;;;;;;1.91;100.00;99275.03;2091043;28;20040;-69
2021/11/28 01:37:27;;;;;;;20.00;11.23;;;;;;;1.91;100.00;99280.19;2090922;28;20064;-68
2021/11/28 01:38:27;;;;;;;16.07;10.77;;;;;;;1.91;100.00;99275.91;2091002;28;20017;-68
2021/11/28 01:39:28;;;;;;;16.52;9.38;;;;;;;1.93;100.00;99278.41;2090918;28;20029;-68
2021/11/28 01:40:29;;;;;;;15.63;10.13;;;;;;;1.93;100.00;99278.41;2090394;28;20025;-68
2021/11/28 01:41:30;;;;;;;16.65;11.27;;;;;;;1.93;100.00;99279.28;2090272;28;20090;-69
2021/11/28 01:42:51;;;;;;;17.90;10.52;;;;;;;1.95;100.00;99281.78;2090931;28;20033;-68
2021/11/28 01:43:52;;;;;;;15.43;9.18;;;;;;;1.95;100.00;99276.63;2090208;28;20017;-68
2021/11/28 01:44:52;;;;;;;16.67;10.20;;;;;;;1.95;100.00;99279.19;2082025;28;20088;-67
2021/11/28 01:45:54;;;;;;;15.47;10.03;;;;;;;1.93;100.00;99283.56;2090350;28;20044;-67
2021/11/28 01:46:55;;;;;;;17.92;10.45;;;;;;;1.93;100.00;99281.00;2090227;28;20029;-68
2021/11/28 01:47:56;;;;;;;;;;;;;;;1.96;100.00;99282.63;2090763;28;20498;-68
2021/11/28 01:48:57;;;;;;;16.80;10.93;;;;;;;1.95;100.00;99286.91;2090961;28;19912;-68
2021/11/28 01:49:58;;;;;;;18.10;10.15;;;;;;;1.97;100.00;99284.31;2090219;28;20054;-68
2021/11/28 01:51:02;;;;;;;14.70;10.02;;;;;;;1.96;100.00;99288.63;2090337;28;20056;-67
2021/11/28 01:52:03;;;;;;;17.23;9.23;;;;;;;1.95;100.00;99288.66;2090934;28;20036;-67
2021/11/28 01:53:10;;;;;;;16.98;9.55;;;;;;;1.94;100.00;99287.81;2090905;28;20049;-68
2021/11/28 01:54:14;;;;;;;17.00;9.82;;;;;;;1.92;100.00;99292.19;2090076;28;20104;-68
2021/11/28 01:55:20;;;;;;;18.48;10.10;;;;;;;1.93;100.00;99299.00;2082325;28;20017;-68
2021/11/28 01:56:23;;;;;;;16.17;9.52;;;;;;;1.93;100.00;99296.44;2090260;28;20145;-68
2021/11/28 01:57:23;;;;;;;15.80;9.98;;;;;;;1.92;100.00;99294.75;2090681;28;20449;-68
2021/11/28 01:58:24;;;;;;;15.43;10.17;;;;;;;1.92;100.00;99302.47;2090827;28;20025;-67
2021/11/28 01:59:25;;;;;;;17.02;10.15;;;;;;;1.88;100.00;99306.03;2090880;28;20071;-68
2021/11/28 02:00:31;;;;;;;18.73;9.43;;;;;;;1.84;100.00;99302.69;2090047;28;20078;-67
2021/11/28 02:01:31;;;;;;;16.40;9.50;;;;;;;1.84;100.00;99300.13;2090145;28;20062;-67
2021/11/28 02:02:32;;;;;;;15.60;9.80;;;;;;;1.86;100.00;99292.38;2089989;28;20114;-67
2021/11/28 02:03:37;;;;;;;16.98;10.60;;;;;;;1.87;100.00;99305.19;2090104;28;20517;-68
2021/11/28 02:04:37;;;;;;;16.13;9.82;;;;;;;1.90;100.00;99294.81;2090688;28;20024;-67
2021/11/28 02:05:42;;;;;;;15.65;10.10;;;;;;;1.91;100.00;99290.47;2089954;28;20052;-67
2021/11/28 02:06:44;;;;;;;17.25;10.05;;;;;;;1.94;100.00;99300.69;2090110;28;20119;-68
2021/11/28 02:07:45;;;;;;;15.35;9.23;;;;;;;1.92;100.00;99297.34;2090659;28;20016;-67
2021/11/28 02:08:46;;;;;;;17.75;11.15;;;;;;;1.94;100.00;99300.69;2090671;28;20028;-68
2021/11/28 02:09:47;;;;;;;14.90;9.18;;;;;;;1.95;100.00;99296.38;2090711;28;20021;-68
2021/11/28 02:10:48;;;;;;;14.30;9.90;;;;;;;1.93;100.00;99296.44;2090636;28;20025;-68
2021/11/28 02:11:49;;;;;;;15.90;8.90;;;;;;;1.94;100.00;99295.53;2089928;28;20022;-68
2021/11/28 02:12:50;;;;;;;18.70;10.10;;;;;;;1.95;100.00;99299.78;2090082;28;20531;-68
2021/11/28 02:13:50;;;;;;;17.55;10.25;;;;;;;1.94;100.00;99295.53;2089954;28;20311;-68
2021/11/28 02:14:50;;;;;;;16.10;9.27;;;;;;;1.93;100.00;99293.88;2090110;28;20195;-68
2021/11/28 02:15:51;;;;;;;17.33;10.43;;;;;;;1.95;100.00;99298.97;2090677;28;20028;-67
2021/11/28 02:16:52;;;;;;;;;;;;;;;1.97;100.00;99292.88;2091070;28;20029;-67
2021/11/28 02:17:55;;;;;;;15.57;9.23;;;;;;;1.94;100.00;99298.09;2090416;28;20418;-67
2021/11/28 02:18:55;;;;;;;16.88;9.27;;;;;;;1.93;100.00;99292.13;2090574;28;20359;-67
2021/11/28 02:19:55;;;;;;;17.87;9.03;;;;;;;1.95;100.00;99296.38;2090582;28;20031;-67
2021/11/28 02:20:58;;;;;;;17.43;9.47;;;;;;;1.96;100.00;99288.63;2090559;28;20043;-67
2021/11/28 02:21:59;;;;;;;17.38;9.43;;;;;;;1.97;100.00;99292.03;2090548;28;20025;-67
2021/11/28 02:23:00;;;;;;;15.20;8.90;;;;;;;1.97;100.00;99287.72;2090624;28;20119;-68
2021/11/28 02:24:00;;;;;;;18.02;9.50;;;;;;;1.98;100.00;99297.13;2089908;28;20576;-67
2021/11/28 02:25:05;;;;;;;18.33;9.70;;;;;;;1.99;100.00;99292.81;2090012;28;20080;-67
2021/11/28 02:26:09;;;;;;;14.05;9.45;;;;;;;1.99;100.00;99292.81;2089920;28;20029;-67
2021/11/28 02:27:10;;;;;;;17.15;9.70;;;;;;;2.00;100.00;99300.50;2081968;28;20112;-68
2021/11/28 02:28:10;;;;;;;20.63;10.90;;;;;;;1.98;100.00;99294.53;2089916;28;20486;-69
2021/11/28 02:29:11;;;;;;;14.77;9.15;;;;;;;1.98;100.00;99302.28;2090367;28;20041;-68
2021/11/28 02:30:14;;;;;;;16.13;10.43;;;;;;;1.98;100.00;99302.28;2090406;28;20108;-68
2021/11/28 02:31:15;;;;;;;18.05;9.25;;;;;;;1.99;100.00;99298.78;2089764;28;20036;-67
2021/11/28 02:32:15;;;;;;;17.50;10.10;;;;;;;2.00;100.00;99308.22;2089862;28;20478;-66
2021/11/28 02:33:16;;;;;;;19.03;10.37;;;;;;;2.00;100.00;99305.66;2089830;28;20031;-67
2021/11/28 02:34:17;;;;;;;17.67;9.47;;;;;;;2.00;100.00;99305.66;2089780;28;20557;-67
2021/11/28 02:35:18;;;;;;;18.60;10.35;;;;;;;1.98;100.00;99304.03;2089887;28;20078;-68
2021/11/28 02:36:19;;;;;;;19.10;11.25;;;;;;;1.96;100.00;99301.50;2089720;28;20082;-67
2021/11/28 02:37:19;;;;;;;15.53;9.13;;;;;;;1.97;100.00;99300.59;2089809;28;20417;-67
2021/11/28 02:38:19;;;;;;;17.33;10.17;;;;;;;2.00;100.00;99297.94;2090398;28;20031;-68
2021/11/28 02:39:20;;;;;;;16.37;9.50;;;;;;;2.00;100.00;99299.66;2090506;28;20074;-67
2021/11/28 02:40:23;;;;;;;18.13;9.98;;;;;;;1.98;100.00;99301.44;2090503;28;20139;-68
2021/11/28 02:42:33;;;;;;;19.50;9.23;;;;;;;1.93;100.00;99311.88;2381416;22;19926;-68
2021/11/28 02:43:33;;;;;;;17.33;10.20;;;;;;;1.96;100.00;99309.22;2073928;28;20077;-68
2021/11/28 02:44:34;;;;;;;17.87;9.03;;;;;;;1.97;100.00;99310.88;2073338;28;20045;-69
2021/11/28 02:45:35;;;;;;;15.48;9.80;;;;;;;1.99;100.00;99309.09;2073408;28;20045;-68
2021/11/28 02:46:35;;;;;;;14.70;8.35;;;;;;;2.01;100.00;99315.03;2074020;28;20437;-68
2021/11/28 02:47:36;;;;;;;19.13;8.87;;;;;;;2.01;100.00;99307.31;2074011;28;20029;-68
2021/11/28 02:48:38;;;;;;;16.80;9.07;;;;;;;2.02;100.00;99313.31;2073947;28;20026;-68
2021/11/28 02:49:39;;;;;;;19.75;9.70;;;;;;;2.02;100.00;99314.16;2073925;28;20036;-68
2021/11/28 02:50:40;;;;;;;16.73;9.60;;;;;;;2.03;100.00;99313.28;2073963;28;20065;-68
2021/11/28 02:51:40;;;;;;;16.55;9.70;;;;;;;2.02;100.00;99319.28;2073933;28;20025;-68
2021/11/28 02:52:41;;;;;;;18.97;10.20;;;;;;;2.01;100.00;99327.91;2073911;28;20462;-68
2021/11/28 02:53:42;;;;;;;16.38;9.93;;;;;;;1.99;100.00;99321.13;2074001;28;20092;-68
2021/11/28 02:54:42;;;;;;;14.53;8.77;;;;;;;1.98;100.00;99322.84;2073819;28;20466;-68
2021/11/28 02:55:47;;;;;;;17.73;10.02;;;;;;;2.02;100.00;99321.03;2073887;28;20052;-68
2021/11/28 02:56:48;;;;;;;17.23;10.73;;;;;;;2.02;100.00;99327.00;2065143;28;20117;-68
2021/11/28 02:57:49;;;;;;;20.10;9.75;;;;;;;2.02;100.00;99329.59;2065198;28;20471;-68
2021/11/28 02:58:49;;;;;;;17.95;9.30;;;;;;;2.02;100.00;99329.59;2073887;28;20026;-68
2021/11/28 02:59:50;;;;;;;16.37;10.07;;;;;;;2.00;100.00;99325.38;2073273;28;20398;-67
2021/11/28 03:00:59;;;;;;;17.67;9.50;;;;;;;1.98;100.00;99322.84;2073404;28;20102;-68
2021/11/28 03:02:00;;;;;;;17.38;10.45;;;;;;;1.98;100.00;99322.84;2073837;28;20068;-67
2021/11/28 03:03:01;;;;;;;20.50;10.63;;;;;;;1.96;100.00;99322.06;2073897;28;20030;-68
2021/11/28 03:04:01;;;;;;;18.17;10.05;;;;;;;1.99;100.00;99323.69;2073885;28;20029;-68
2021/11/28 03:05:01;;;;;;;22.80;11.13;;;;;;;2.00;100.00;99323.66;2073998;28;20208;-68
2021/11/28 03:06:02;;;;;;;16.43;10.20;;;;;;;2.01;100.00;99320.19;2073805;28;20025;-68
2021/11/28 03:07:02;;;;;;;18.43;11.03;;;;;;;2.01;100.00;99319.34;2074010;28;20030;-68
2021/11/28 03:08:03;;;;;;;17.48;10.43;;;;;;;2.01;100.00;99315.03;2073928;28;20048;-67
2021/11/28 03:09:04;;;;;;;17.43;10.10;;;;;;;2.02;100.00;99319.28;2065105;28;20034;-68
2021/11/28 03:10:06;;;;;;;17.13;9.68;;;;;;;2.00;100.00;99315.94;2065128;28;20113;-69
2021/11/28 03:11:09;;;;;;;16.92;9.80;;;;;;;2.00;100.00;99318.50;2073189;28;20113;-67
2021/11/28 03:12:09;;;;;;;17.73;10.73;;;;;;;2.01;100.00;99322.75;2073817;28;20077;-67
2021/11/28 03:13:16;;;;;;;21.25;11.43;;;;;;;2.02;100.00;99324.44;2073825;28;20113;-67
2021/11/28 03:14:16;;;;;;;17.77;11.60;;;;;;;2.00;100.00;99323.66;2073787;28;20121;-69
2021/11/28 03:15:17;;;;;;;20.20;11.27;;;;;;;2.02;100.00;99315.91;2073843;28;20478;-68
2021/11/28 03:16:20;;;;;;;21.60;10.90;;;;;;;2.02;100.00;99324.44;2073912;28;20505;-67
2021/11/28 03:17:21;;;;;;;18.67;12.02;;;;;;;1.99;100.00;99324.53;2073762;28;20038;-67
2021/11/28 03:18:23;;;;;;;22.40;11.53;;;;;;;1.99;100.00;99334.81;2073781;28;20069;-67
2021/11/28 03:19:24;;;;;;;21.02;10.80;;;;;;;1.98;100.00;99333.16;2073824;28;20030;-67
2021/11/28 03:20:24;;;;;;;19.90;11.53;;;;;;;1.97;100.00;99328.03;2073726;28;20038;-68
2021/11/28 03:21:29;;;;;;;22.67;11.33;;;;;;;1.98;100.00;99330.56;2073792;28;20065;-68
2021/11/28 03:22:29;;;;;;;16.88;10.30;;;;;;;1.97;100.00;99331.47;2073727;28;20036;-68
2021/11/28 03:23:31;;;;;;;20.53;10.53;;;;;;;1.97;100.00;99335.75;2073817;28;20026;-68
2021/11/28 03:24:32;;;;;;;17.60;10.57;;;;;;;1.95;100.00;99329.84;2073674;28;20026;-68
2021/11/28 03:25:34;;;;;;;21.13;11.40;;;;;;;1.93;100.00;99341.03;2073752;28;20034;-68
2021/11/28 03:26:40;;;;;;;22.73;12.07;;;;;;;1.93;100.00;99337.59;2073740;28;20033;-68
2021/11/28 03:27:40;;;;;;;20.20;9.98;;;;;;;1.92;100.00;99334.19;2064962;28;20023;-68
2021/11/28 03:28:48;;;;;;;18.80;10.00;;;;;;;1.92;100.00;99328.22;2065003;28;20022;-67
2021/11/28 03:29:48;;;;;;;17.85;9.13;;;;;;;1.91;100.00;99336.78;2073495;28;20474;-68
2021/11/28 03:30:49;;;;;;;17.87;10.53;;;;;;;1.91;100.00;99336.78;2064795;28;20137;-68
2021/11/28 03:31:52;;;;;;;27.13;11.40;;;;;;;1.89;100.00;99338.59;2056879;28;20507;-68
2021/11/28 03:32:52;;;;;;;19.65;9.45;;;;;;;1.89;100.00;99341.16;2065209;28;20474;-68
2021/11/28 03:33:53;;;;;;;21.13;9.87;;;;;;;1.89;100.00;99328.28;2073672;28;20030;-68
2021/11/28 03:34:53;;;;;;;18.15;10.45;;;;;;;1.89;100.00;99336.00;2064832;28;20104;-66
2021/11/28 03:35:54;;;;;;;19.93;11.13;;;;;;;1.88;100.00;99334.34;2056846;28;20037;-68
2021/11/28 03:36:56;;;;;;;20.03;11.43;;;;;;;1.88;100.00;99347.19;2064864;28;20033;-67
2021/11/28 03:37:57;;;;;;;21.35;11.07;;;;;;;1.89;100.00;99343.72;2072846;28;20022;-67
2021/11/28 03:38:58;;;;;;;22.77;11.63;;;;;;;1.90;100.00;99335.13;2073048;28;20018;-67
2021/11/28 03:39:59;;;;;;;16.77;10.52;;;;;;;1.90;100.00;99335.13;2073674;28;20028;-67
2021/11/28 03:40:59;;;;;;;;;;;;;;;1.92;100.00;99339.31;2073987;28;20034;-67
2021/11/28 03:42:06;;;;;;;21.00;9.18;;;;;;;1.93;100.00;99337.59;2073659;28;19909;-67
2021/11/28 03:43:07;;;;;;;17.70;10.20;;;;;;;1.94;100.00;99336.72;2073373;28;20045;-67
2021/11/28 03:44:07;;;;;;;21.40;10.60;;;;;;;1.93;100.00;99340.19;2073612;28;20034;-68
2021/11/28 03:45:16;;;;;;;25.97;11.97;;;;;;;1.91;100.00;99341.94;2064758;28;20018;-68
2021/11/28 03:46:16;;;;;;;20.35;10.45;;;;;;;1.92;100.00;99343.66;2066009;28;20585;-67
2021/11/28 03:47:18;;;;;;;25.57;12.00;;;;;;;1.92;100.00;99343.66;2073629;28;20042;-68
2021/11/28 03:48:18;;;;;;;22.17;11.48;;;;;;;1.94;100.00;99341.84;2073559;28;20057;-68
2021/11/28 03:49:19;;;;;;;23.10;11.50;;;;;;;1.96;100.00;99349.53;2073576;28;20093;-68
2021/11/28 03:50:19;;;;;;;18.95;10.60;;;;;;;1.94;100.00;99341.84;2073570;28;20057;-68
2021/11/28 03:51:20;;;;;;;24.02;12.07;;;;;;;1.93;100.00;99351.31;2073634;28;20414;-68
2021/11/28 03:52:20;;;;;;;22.07;11.93;;;;;;;1.95;100.00;99350.44;2073416;28;20026;-68
2021/11/28 03:53:20;;;;;;;26.17;12.97;;;;;;;1.93;100.00;99348.75;2073322;28;20474;-68
2021/11/28 03:54:21;;;;;;;22.50;12.53;;;;;;;1.95;100.00;99348.66;2073586;28;20029;-68
2021/11/28 03:55:23;;;;;;;21.23;11.60;;;;;;;1.96;100.00;99352.09;2073533;28;20026;-69
2021/11/28 03:56:24;;;;;;;26.08;13.55;;;;;;;1.95;100.00;99348.66;2073527;28;20482;-68
2021/11/28 03:57:24;;;;;;;19.98;12.10;;;;;;;1.96;100.00;99344.38;2073508;28;20022;-67
2021/11/28 03:58:24;;;;;;;20.03;11.27;;;;;;;1.95;100.00;99343.53;2073563;28;20474;-68
2021/11/28 03:59:25;;;;;;;25.37;12.03;;;;;;;1.97;100.00;99341.75;2073609;28;20080;-68
2021/11/28 04:00:26;;;;;;;21.23;10.60;;;;;;;1.98;100.00;99346.00;2073556;28;20030;-67
2021/11/28 04:01:26;;;;;;;24.95;12.35;;;;;;;1.96;100.00;99345.22;2073689;28;20482;-67
2021/11/28 04:02:27;;;;;;;27.30;15.00;;;;;;;1.91;100.00;99345.38;2073460;28;20040;-68
2021/11/28 04:03:27;;;;;;;23.85;13.02;;;;;;;1.90;100.00;99350.56;2064745;28;20030;-67
2021/11/28 04:04:27;;;;;;;23.98;11.88;;;;;;;1.91;100.00;99347.09;2064868;28;20046;-67
2021/11/28 04:05:28;;;;;;;26.83;13.17;;;;;;;1.90;100.00;99345.41;2073563;28;20466;-68
2021/11/28 04:06:28;;;;;;;23.63;13.30;;;;;;;1.91;100.00;99352.22;2073569;28;20066;-67
2021/11/28 04:07:30;;;;;;;29.77;13.10;;;;;;;1.91;100.00;99353.09;2073437;28;20095;-67
2021/11/28 04:08:31;;;;;;;28.08;14.18;;;;;;;1.92;100.00;99343.66;2073508;28;20046;-68
2021/11/28 04:09:31;;;;;;;27.83;13.90;;;;;;;1.90;100.00;99345.41;2073507;28;20021;-68
2021/11/28 04:10:31;;;;;;;23.83;11.93;;;;;;;1.89;100.00;99344.56;2064770;28;20049;-68
2021/11/28 04:11:31;;;;;;;23.47;14.00;;;;;;;1.89;100.00;99352.28;2064718;28;20486;-67
2021/11/28 04:12:32;;;;;;;25.10;13.10;;;;;;;1.90;100.00;99355.69;2064749;28;20038;-67
2021/11/28 04:13:32;;;;;;;25.47;14.77;;;;;;;1.89;100.00;99351.44;2064837;28;20033;-67
2021/11/28 04:14:33;;;;;;;21.00;12.50;;;;;;;1.87;100.00;99346.34;2073400;28;20036;-67
2021/11/28 04:15:33;;;;;;;24.97;13.57;;;;;;;1.89;100.00;99359.16;2073553;28;20053;-68
2021/11/28 04:16:33;;;;;;;25.13;13.97;;;;;;;1.90;100.00;99353.13;2064677;28;20300;-68
2021/11/28 04:17:34;;;;;;;24.83;13.17;;;;;;;1.90;100.00;99358.28;2064809;28;20457;-67
2021/11/28 04:18:34;;;;;;;22.57;13.40;;;;;;;1.89;100.00;99359.16;2073463;28;20061;-67
2021/11/28 04:19:35;;;;;;;26.30;15.33;;;;;;;1.88;100.00;99357.50;2073438;28;20112;-67
2021/11/28 04:20:36;;;;;;;23.60;12.57;;;;;;;1.88;100.00;99360.88;2073468;28;20103;-68
2021/11/28 04:21:38;;;;;;;26.65;12.95;;;;;;;1.91;100.00;99359.94;2073420;28;20383;-67
2021/11/28 04:22:38;;;;;;;26.00;13.13;;;;;;;1.91;100.00;99357.38;2064765;28;20332;-67
2021/11/28 04:23:39;;;;;;;23.33;11.93;;;;;;;1.92;100.00;99364.22;2064801;28;20030;-67
2021/11/28 04:24:40;;;;;;;23.83;12.20;;;;;;;1.94;100.00;99354.72;2072743;28;20684;-68
2021/11/28 04:25:40;;;;;;;26.23;14.07;;;;;;;1.93;100.00;99353.91;2064736;28;20028;-68
2021/11/28 04:26:41;;;;;;;25.63;13.43;;;;;;;1.93;100.00;99355.63;2064738;28;20142;-68
2021/11/28 04:27:42;;;;;;;;;;;;;;;1.95;100.00;99358.13;2073828;28;20079;-67
2021/11/28 04:28:42;;;;;;;21.50;11.65;;;;;;;1.96;100.00;99360.69;2073382;28;20416;-67
2021/11/28 04:29:42;;;;;;;22.90;12.60;;;;;;;1.96;100.00;99360.69;2064633;28;20027;-68
2021/11/28 04:30:43;;;;;;;27.27;14.30;;;;;;;1.96;100.00;99364.97;2064800;28;20093;-68
2021/11/28 04:31:45;;;;;;;21.83;12.03;;;;;;;1.96;100.00;99363.25;2073342;28;20293;-68
2021/11/28 04:32:45;;;;;;;24.27;14.27;;;;;;;1.96;100.00;99363.25;2073362;28;20025;-67
2021/11/28 04:33:45;;;;;;;24.57;13.00;;;;;;;1.95;100.00;99365.88;2064667;28;20033;-68
2021/11/28 04:34:46;;;;;;;21.63;11.77;;;;;;;1.95;100.00;99371.81;2064714;28;20026;-68
2021/11/28 04:35:47;;;;;;;28.37;14.43;;;;;;;1.96;100.00;99378.69;2073352;28;20096;-69
2021/11/28 04:36:47;;;;;;;;;;;;;;;1.97;100.00;99372.63;2073762;28;20068;-68
2021/11/28 04:37:49;;;;;;;24.05;12.15;;;;;;;1.97;100.00;99369.22;2073379;28;19940;-68
2021/11/28 04:38:49;;;;;;;21.90;12.85;;;;;;;1.99;100.00;99376.00;2073465;28;20041;-68
2021/11/28 04:39:49;;;;;;;22.63;13.10;;;;;;;1.99;100.00;99378.56;2073380;28;20402;-68
2021/11/28 04:40:50;;;;;;;23.87;12.33;;;;;;;2.01;100.00;99374.22;2064661;28;20089;-67
2021/11/28 04:41:50;;;;;;;25.47;11.27;;;;;;;2.02;100.00;99375.09;2064697;28;20022;-67
2021/11/28 04:42:51;;;;;;;23.67;12.63;;;;;;;2.03;100.00;99381.91;2073235;28;20324;-69
2021/11/28 04:43:51;;;;;;;23.97;13.47;;;;;;;2.01;100.00;99381.09;2073307;28;20026;-68
2021/11/28 04:44:51;;;;;;;24.70;13.60;;;;;;;1.99;100.00;99380.31;2073404;28;20446;-67
2021/11/28 04:45:52;;;;;;;24.67;13.13;;;;;;;1.98;100.00;99379.47;2073424;28;20049;-67
2021/11/28 04:46:52;;;;;;;24.40;13.67;;;;;;;1.99;100.00;99376.00;2073419;28;20071;-68
2021/11/28 04:47:53;;;;;;;28.88;14.63;;;;;;;1.98;100.00;99369.16;2073418;28;20446;-67
2021/11/28 04:48:53;;;;;;;25.05;12.88;;;;;;;1.98;100.00;99379.47;2073375;28;20471;-67